Time;durP1;ratioP1;P1;durP2;ratioP2;P2;SDS_P1;SDS_P2;PMS_P1;PMS_P2;Temp;Humidity;BMP_temperature;BMP_pressure;BME280_temperature;BME280_humidity;BME280_pressure;Samples;Min_cycle;Max_cycle;Signal;HPM_P1;HPM_P2
2024/02/07 00:00:51;;;;;;;2.38;1.38;;;;;;;3.37;nan;95681.88;2065932;28;20061;-64
2024/02/07 00:01:52;;;;;;;6.40;1.98;;;;;;;3.40;nan;95690.34;2065687;28;20436;-63
2024/02/07 00:02:53;;;;;;;3.50;2.00;;;;;;;3.47;nan;95676.47;2064947;28;20046;-64
2024/02/07 00:03:54;;;;;;;5.72;2.45;;;;;;;3.51;nan;95683.22;2066462;28;20042;-64
2024/02/07 00:04:55;;;;;;;3.30;1.40;;;;;;;3.52;nan;95686.63;2065878;28;20058;-64
2024/02/07 00:05:57;;;;;;;5.65;1.75;;;;;;;3.55;nan;95678.84;2066286;28;20038;-63
2024/02/07 00:06:58;;;;;;;3.00;1.50;;;;;;;3.56;nan;95672.84;2065723;28;20050;-63
2024/02/07 00:07:59;;;;;;;3.53;1.88;;;;;;;3.57;nan;95679.66;2066188;28;20486;-63
2024/02/07 00:09:00;;;;;;;3.55;1.85;;;;;;;3.52;nan;95666.94;2066149;28;20034;-63
2024/02/07 00:10:02;;;;;;;4.65;2.30;;;;;;;3.54;nan;95675.44;2066056;28;20050;-63
2024/02/07 00:11:03;;;;;;;6.90;2.00;;;;;;;3.57;nan;95682.22;2065467;28;20058;-63
2024/02/07 00:12:05;;;;;;;3.80;1.92;;;;;;;3.52;nan;95681.50;2066207;28;20023;-63
2024/02/07 00:13:06;;;;;;;4.15;1.50;;;;;;;3.47;nan;95681.59;2065876;28;20410;-63
2024/02/07 00:14:07;;;;;;;4.07;1.52;;;;;;;3.49;nan;95684.16;2068968;28;20049;-63
2024/02/07 00:15:09;;;;;;;2.58;1.50;;;;;;;3.49;nan;95674.72;2066194;28;20046;-63
2024/02/07 00:16:10;;;;;;;2.72;1.55;;;;;;;3.47;nan;95675.63;2066101;28;20057;-63
2024/02/07 00:17:12;;;;;;;3.97;2.05;;;;;;;3.47;nan;95678.19;2065514;28;20406;-63
2024/02/07 00:18:13;;;;;;;3.95;1.90;;;;;;;3.42;nan;95657.78;2066053;28;20394;-64
2024/02/07 00:19:14;;;;;;;2.83;1.42;;;;;;;3.47;nan;95680.75;2066066;28;20050;-64
2024/02/07 00:20:15;;;;;;;3.47;1.80;;;;;;;3.48;nan;95680.75;2065892;28;20398;-63
2024/02/07 00:21:16;;;;;;;2.03;1.30;;;;;;;3.45;nan;95675.69;2065977;28;20042;-63
2024/02/07 00:22:17;;;;;;;3.38;1.80;;;;;;;3.43;nan;95672.31;2065911;28;20061;-63
2024/02/07 00:23:18;;;;;;;4.20;2.03;;;;;;;3.43;nan;95676.59;2066209;28;20042;-63
2024/02/07 00:24:19;;;;;;;6.15;1.83;;;;;;;3.43;nan;95674.03;2066008;28;20038;-63
2024/02/07 00:25:21;;;;;;;2.63;1.65;;;;;;;3.41;nan;95674.06;2065899;28;20398;-63
2024/02/07 00:26:22;;;;;;;4.35;2.25;;;;;;;3.44;nan;95673.16;2066247;28;20038;-63
2024/02/07 00:27:23;;;;;;;4.72;1.60;;;;;;;3.36;nan;95655.34;2065572;28;20402;-64
2024/02/07 00:28:24;;;;;;;2.13;1.25;;;;;;;3.33;nan;95680.25;2066139;28;20037;-63
2024/02/07 00:29:25;;;;;;;3.63;1.38;;;;;;;3.38;nan;95658.75;2065680;28;20053;-63
2024/02/07 00:30:26;;;;;;;2.05;1.10;;;;;;;3.43;nan;95663.78;2066233;28;20038;-63
2024/02/07 00:31:27;;;;;;;4.97;1.70;;;;;;;3.48;nan;95660.19;2065729;28;20046;-63
2024/02/07 00:32:28;;;;;;;3.17;1.63;;;;;;;3.51;nan;95662.69;2066274;28;20479;-63
2024/02/07 00:33:29;;;;;;;2.55;1.20;;;;;;;3.51;nan;95641.31;2065940;28;20030;-63
2024/02/07 00:34:31;;;;;;;3.65;1.20;;;;;;;3.52;nan;95660.97;2065963;28;20077;-63
2024/02/07 00:35:32;;;;;;;4.07;2.00;;;;;;;3.52;nan;95643.81;2065169;28;20050;-63
2024/02/07 00:36:34;;;;;;;3.78;1.60;;;;;;;3.62;nan;95661.59;2066147;28;20045;-64
2024/02/07 00:37:35;;;;;;;3.72;1.40;;;;;;;3.61;nan;95650.47;2066245;28;20042;-63
2024/02/07 00:38:36;;;;;;;3.30;1.30;;;;;;;3.58;nan;95650.53;2065781;28;20106;-63
2024/02/07 00:39:37;;;;;;;5.05;1.70;;;;;;;3.53;nan;95660.09;2066077;28;20049;-63
2024/02/07 00:40:39;;;;;;;4.95;2.10;;;;;;;3.48;nan;95659.38;2066045;28;20030;-63
2024/02/07 00:41:40;;;;;;;4.00;1.35;;;;;;;3.42;nan;95655.22;2066118;28;20050;-63
2024/02/07 00:42:41;;;;;;;2.85;1.40;;;;;;;3.44;nan;95656.00;2065243;28;20054;-63
2024/02/07 00:43:42;;;;;;;3.55;1.58;;;;;;;3.48;nan;95646.53;2065315;28;20414;-63
2024/02/07 00:44:43;;;;;;;2.78;1.17;;;;;;;3.48;nan;95661.94;2065545;28;20050;-63
2024/02/07 00:45:45;;;;;;;4.93;1.80;;;;;;;3.49;nan;95650.78;2065837;28;20058;-63
2024/02/07 00:46:46;;;;;;;4.03;1.80;;;;;;;3.42;nan;95642.41;2065781;28;20479;-63
2024/02/07 00:47:47;;;;;;;3.15;1.60;;;;;;;3.48;nan;95661.94;2065992;28;20046;-63
2024/02/07 00:48:48;;;;;;;2.47;1.20;;;;;;;3.45;nan;95654.31;2065446;28;20050;-63
2024/02/07 00:49:49;;;;;;;2.50;1.40;;;;;;;3.51;nan;95659.28;2065089;28;20061;-63
2024/02/07 00:50:50;;;;;;;3.38;2.03;;;;;;;3.52;nan;95638.69;2065261;28;20050;-64
2024/02/07 00:51:52;;;;;;;4.82;1.75;;;;;;;3.51;nan;95655.00;2066008;28;20410;-64
2024/02/07 00:52:53;;;;;;;8.35;2.22;;;;;;;3.45;nan;95639.75;2065459;28;20050;-63
2024/02/07 00:53:54;;;;;;;5.38;2.10;;;;;;;3.48;nan;95631.97;2057501;28;20041;-63
2024/02/07 00:54:55;;;;;;;4.35;2.10;;;;;;;3.51;nan;95641.31;2057272;28;20043;-63
2024/02/07 00:55:56;;;;;;;3.33;1.60;;;;;;;3.45;nan;95644.88;2065857;28;20082;-64
2024/02/07 00:56:57;;;;;;;3.13;1.83;;;;;;;3.44;nan;95653.44;2065979;28;20050;-63
2024/02/07 00:57:58;;;;;;;3.78;2.00;;;;;;;3.42;nan;95646.66;2065141;28;20410;-63
2024/02/07 00:58:59;;;;;;;4.88;1.38;;;;;;;3.44;nan;95632.06;2065761;28;20038;-64
2024/02/07 01:00:00;;;;;;;4.00;2.03;;;;;;;3.45;nan;95623.50;2065857;28;20042;-62
2024/02/07 01:01:03;;;;;;;3.83;1.52;;;;;;;3.51;nan;95634.44;2066008;28;20049;-63
2024/02/07 01:02:05;;;;;;;3.67;2.03;;;;;;;3.55;nan;95632.63;2065255;28;20054;-63
2024/02/07 01:03:06;;;;;;;5.78;2.03;;;;;;;3.51;nan;95636.19;2065677;28;20038;-63
2024/02/07 01:04:07;;;;;;;3.00;1.73;;;;;;;3.46;nan;95640.59;2065840;28;20050;-63
2024/02/07 01:05:08;;;;;;;4.45;2.33;;;;;;;3.45;nan;95644.03;2065092;28;20054;-63
2024/02/07 01:06:10;;;;;;;4.68;2.28;;;;;;;3.44;nan;95640.59;2065806;28;20508;-63
2024/02/07 01:07:11;;;;;;;3.60;1.65;;;;;;;3.43;nan;95638.09;2065397;28;20054;-63
2024/02/07 01:08:12;;;;;;;3.65;1.50;;;;;;;3.47;nan;95637.97;2065164;28;20407;-63
2024/02/07 01:09:13;;;;;;;5.97;2.08;;;;;;;3.46;nan;95648.28;2065695;28;20034;-63
2024/02/07 01:10:14;;;;;;;4.50;1.88;;;;;;;3.46;nan;95644.00;2065791;28;20127;-62
2024/02/07 01:11:16;;;;;;;3.92;1.80;;;;;;;3.50;nan;95619.94;2065599;28;20046;-64
2024/02/07 01:12:18;;;;;;;5.68;2.33;;;;;;;3.53;nan;95637.00;2065581;28;20034;-63
2024/02/07 01:13:20;;;;;;;5.47;1.88;;;;;;;3.50;nan;95625.06;2065142;28;20053;-63
2024/02/07 01:14:21;;;;;;;5.10;1.67;;;;;;;3.48;nan;95626.00;2065044;28;20479;-63
2024/02/07 01:15:22;;;;;;;6.70;2.00;;;;;;;3.48;nan;95628.56;2065759;28;20027;-63
2024/02/07 01:16:23;;;;;;;5.63;2.08;;;;;;;3.48;nan;95628.56;2065213;28;20034;-63
2024/02/07 01:17:24;;;;;;;5.20;1.90;;;;;;;3.44;nan;95622.63;2064810;28;20046;-63
2024/02/07 01:18:25;;;;;;;4.88;2.10;;;;;;;3.42;nan;95628.69;2065745;28;20510;-62
2024/02/07 01:19:26;;;;;;;4.05;1.95;;;;;;;3.39;nan;95629.59;2065134;28;20034;-62
2024/02/07 01:20:27;;;;;;;4.82;1.65;;;;;;;3.34;nan;95633.19;2064967;28;20042;-63
2024/02/07 01:21:28;;;;;;;2.17;1.27;;;;;;;3.37;nan;95631.41;2056567;28;20419;-63
2024/02/07 01:22:29;;;;;;;7.38;2.10;;;;;;;3.37;nan;95628.81;2056728;28;20056;-63
2024/02/07 01:23:31;;;;;;;4.97;2.42;;;;;;;3.36;nan;95611.72;2065632;28;20053;-63
2024/02/07 01:24:32;;;;;;;6.72;1.70;;;;;;;3.41;nan;95619.31;2065458;28;20045;-63
2024/02/07 01:25:33;;;;;;;3.13;1.63;;;;;;;3.38;nan;95616.84;2064469;28;20068;-63
2024/02/07 01:26:35;;;;;;;3.60;1.90;;;;;;;3.38;nan;95621.97;2064527;28;20057;-63
2024/02/07 01:27:36;;;;;;;4.63;2.58;;;;;;;3.43;nan;95605.56;2065466;28;20053;-63
2024/02/07 01:28:37;;;;;;;4.25;2.22;;;;;;;3.45;nan;95613.25;2065583;28;20049;-64
2024/02/07 01:29:38;;;;;;;4.38;2.13;;;;;;;3.48;nan;95618.28;2065569;28;20045;-63
2024/02/07 01:30:39;;;;;;;4.15;1.70;;;;;;;3.48;nan;95613.16;2065762;28;20041;-64
2024/02/07 01:31:41;;;;;;;4.25;1.98;;;;;;;3.53;nan;95590.78;2065005;28;20050;-63
2024/02/07 01:32:43;;;;;;;4.43;1.80;;;;;;;3.50;nan;95611.38;2065607;28;20038;-64
2024/02/07 01:33:45;;;;;;;8.00;3.55;;;;;;;3.48;nan;95608.03;2065772;28;20038;-63
2024/02/07 01:34:46;;;;;;;15.30;2.33;;;;;;;3.50;nan;95609.66;2064907;28;20073;-64
2024/02/07 01:35:47;;;;;;;2.78;1.70;;;;;;;3.52;nan;95601.91;2065525;28;20042;-64
2024/02/07 01:36:48;;;;;;;4.72;1.85;;;;;;;3.55;nan;95612.09;2056939;28;20054;-63
2024/02/07 01:37:50;;;;;;;4.65;1.75;;;;;;;3.53;nan;95613.88;2056418;28;20062;-63
2024/02/07 01:38:51;;;;;;;4.90;2.70;;;;;;;3.51;nan;95608.78;2065022;28;20056;-63
2024/02/07 01:39:53;;;;;;;5.35;1.50;;;;;;;3.46;nan;95612.34;2065581;28;20062;-64
2024/02/07 01:40:57;;;;;;;10.63;2.85;;;;;;;3.48;nan;95613.16;2065554;28;20514;-63
2024/02/07 01:41:58;;;;;;;4.07;1.92;;;;;;;3.49;nan;95613.09;2064956;28;20065;-63
2024/02/07 01:43:01;;;;;;;3.80;1.92;;;;;;;3.47;nan;95609.72;2065479;28;20047;-63
2024/02/07 01:44:02;;;;;;;4.28;1.88;;;;;;;3.47;nan;95616.59;2065480;28;20042;-63
2024/02/07 01:45:20;;;;;;;6.40;2.28;;;;;;;3.44;nan;95608.97;2065093;28;20085;-63
2024/02/07 01:46:21;;;;;;;5.95;2.30;;;;;;;3.44;nan;95614.94;2065591;28;20390;-63
2024/02/07 01:47:22;;;;;;;2.35;1.30;;;;;;;3.46;nan;95608.03;2065516;28;20046;-64
2024/02/07 01:48:23;;;;;;;6.18;2.08;;;;;;;3.48;nan;95603.72;2057199;28;20139;-64
2024/02/07 01:49:24;;;;;;;4.28;2.10;;;;;;;3.49;nan;95600.25;2048981;28;20031;-63
2024/02/07 01:50:26;;;;;;;4.28;1.88;;;;;;;3.54;nan;95610.41;2057197;28;20055;-63
2024/02/07 01:51:27;;;;;;;5.32;1.70;;;;;;;3.51;nan;95603.63;2058619;28;20517;-63
2024/02/07 01:52:28;;;;;;;5.57;1.75;;;;;;;3.50;nan;95616.50;2057991;28;20058;-62
2024/02/07 01:53:29;;;;;;;4.38;2.22;;;;;;;3.50;nan;95596.84;2050668;29;20403;-63
2024/02/07 01:54:31;;;;;;;4.93;2.17;;;;;;;3.56;nan;95610.41;2050738;28;20039;-63
2024/02/07 01:55:32;;;;;;;5.30;1.88;;;;;;;3.54;nan;95611.25;2058526;28;20061;-62
2024/02/07 01:56:36;;;;;;;3.40;2.05;;;;;;;3.54;nan;95598.41;2051012;28;20549;-64
2024/02/07 01:57:38;;;;;;;3.10;1.80;;;;;;;3.57;nan;95627.47;2058712;28;20038;-63
2024/02/07 01:58:39;;;;;;;6.13;2.80;;;;;;;3.56;nan;95620.66;2066206;28;20502;-63
2024/02/07 01:59:40;;;;;;;5.35;2.00;;;;;;;3.58;nan;95621.44;2067190;28;20026;-63
2024/02/07 02:00:41;;;;;;;3.35;1.88;;;;;;;3.60;nan;95622.25;2067113;28;20402;-64
2024/02/07 02:01:43;;;;;;;6.25;1.63;;;;;;;3.60;nan;95612.81;2050455;29;20043;-63
2024/02/07 02:02:45;;;;;;;4.00;2.38;;;;;;;3.60;nan;95617.97;2034323;29;20052;-63
2024/02/07 02:03:46;;;;;;;9.15;2.78;;;;;;;3.55;nan;95614.66;2042593;29;20048;-63
2024/02/07 02:04:47;;;;;;;4.72;2.03;;;;;;;3.55;nan;95601.81;2042783;29;20063;-63
2024/02/07 02:05:48;;;;;;;7.07;2.95;;;;;;;3.59;nan;95607.75;2058107;28;20065;-63
2024/02/07 02:06:50;;;;;;;7.10;3.30;;;;;;;3.60;nan;95610.25;2067158;28;20470;-63
2024/02/07 02:07:51;;;;;;;9.00;2.83;;;;;;;3.61;nan;95596.56;2067050;28;20061;-63
2024/02/07 02:08:54;;;;;;;4.57;2.65;;;;;;;3.63;nan;95605.03;2067050;28;20471;-63
2024/02/07 02:09:55;;;;;;;4.57;2.50;;;;;;;3.63;nan;95589.63;2058474;28;20396;-63
2024/02/07 02:10:58;;;;;;;3.95;2.08;;;;;;;3.65;nan;95590.44;2050149;28;20050;-63
2024/02/07 02:12:00;;;;;;;5.20;2.28;;;;;;;3.63;nan;95578.53;2058870;28;20054;-64
2024/02/07 02:13:02;;;;;;;6.00;2.70;;;;;;;3.59;nan;95562.38;2065913;28;20050;-65
2024/02/07 02:14:03;;;;;;;8.80;2.80;;;;;;;3.63;nan;95555.41;2067106;28;20046;-63
2024/02/07 02:15:05;;;;;;;6.78;3.17;;;;;;;3.61;nan;95570.88;2058529;28;20042;-63
2024/02/07 02:16:06;;;;;;;5.57;3.28;;;;;;;3.65;nan;95572.47;2057661;28;20411;-63
2024/02/07 02:17:07;;;;;;;5.90;2.90;;;;;;;3.62;nan;95569.16;2066961;28;20034;-63
2024/02/07 02:18:08;;;;;;;6.47;2.95;;;;;;;3.63;nan;95552.84;2067271;28;20069;-64
2024/02/07 02:19:09;;;;;;;5.28;2.75;;;;;;;3.72;nan;95561.16;2067112;28;20042;-63
2024/02/07 02:20:10;;;;;;;4.97;2.50;;;;;;;3.66;nan;95558.75;2067262;28;20038;-63
2024/02/07 02:21:19;;;;;;;7.15;2.97;;;;;;;3.63;nan;95561.38;2067443;28;20038;-63
2024/02/07 02:22:23;;;;;;;5.88;2.70;;;;;;;3.63;nan;95551.09;2057935;28;20061;-63
2024/02/07 02:23:57;;;;;;;7.05;2.83;;;;;;;3.61;nan;95558.03;2058523;28;20054;-63
2024/02/07 02:25:15;;;;;;;5.72;2.70;;;;;;;3.69;nan;95552.69;2057468;28;20046;-63
2024/02/07 02:26:38;;;;;;;5.63;2.97;;;;;;;3.73;nan;95555.13;2052536;28;20062;-63
2024/02/07 02:27:54;;;;;;;9.73;3.30;;;;;;;3.70;nan;95544.09;2052491;28;20058;-64
2024/02/07 02:29:14;;;;;;;5.43;2.83;;;;;;;3.73;nan;95547.41;2052605;28;20053;-64
2024/02/07 02:30:31;;;;;;;5.20;2.80;;;;;;;3.76;nan;95523.38;2053457;28;20466;-64
2024/02/07 02:31:33;;;;;;;7.38;2.83;;;;;;;3.83;nan;95542.88;2053506;28;20096;-63
2024/02/07 02:32:34;;;;;;;5.50;2.88;;;;;;;3.81;nan;95524.09;2044826;29;20096;-63
2024/02/07 02:33:35;;;;;;;8.23;3.17;;;;;;;3.79;nan;95525.00;2050200;28;20110;-64
2024/02/07 02:34:37;;;;;;;6.72;2.70;;;;;;;3.77;nan;95509.66;2042417;29;20051;-64
2024/02/07 02:35:40;;;;;;;5.88;2.90;;;;;;;3.82;nan;95530.06;2042160;28;20058;-64
2024/02/07 02:36:42;;;;;;;7.38;3.35;;;;;;;3.76;nan;95531.91;2050801;28;20050;-64
2024/02/07 02:37:44;;;;;;;8.35;2.95;;;;;;;3.74;nan;95518.28;2050227;29;20031;-63
2024/02/07 02:38:45;;;;;;;6.38;3.08;;;;;;;3.76;nan;95513.94;2050769;28;20055;-63
2024/02/07 02:39:47;;;;;;;6.50;3.15;;;;;;;3.81;nan;95518.13;2066300;28;20061;-64
2024/02/07 02:40:49;;;;;;;5.70;2.70;;;;;;;3.78;nan;95518.19;2066828;28;20042;-63
2024/02/07 02:41:50;;;;;;;9.75;3.25;;;;;;;3.73;nan;95516.59;2067261;28;20410;-63
2024/02/07 02:42:51;;;;;;;8.27;3.15;;;;;;;3.72;nan;95514.09;2066878;28;20042;-63
2024/02/07 02:43:52;;;;;;;6.32;3.08;;;;;;;3.72;nan;95542.34;2066896;28;20035;-63
2024/02/07 02:44:53;;;;;;;4.85;2.72;;;;;;;3.74;nan;95520.88;2066773;28;20042;-64
2024/02/07 02:45:54;;;;;;;8.52;3.72;;;;;;;3.71;nan;95510.66;2067055;28;20042;-63
2024/02/07 02:46:55;;;;;;;5.82;3.00;;;;;;;3.76;nan;95511.38;2067104;28;20482;-63
2024/02/07 02:47:56;;;;;;;7.65;3.28;;;;;;;3.76;nan;95505.38;2066989;28;20042;-63
2024/02/07 02:48:59;;;;;;;4.55;2.70;;;;;;;3.77;nan;95486.53;2066221;28;20395;-63
2024/02/07 02:50:01;;;;;;;6.13;3.00;;;;;;;3.84;nan;95507.75;2066583;28;20050;-63
2024/02/07 02:51:02;;;;;;;6.03;2.92;;;;;;;3.79;nan;95517.31;2066102;28;20061;-63
2024/02/07 02:52:04;;;;;;;7.68;3.58;;;;;;;3.79;nan;95489.06;2066491;28;20042;-63
2024/02/07 02:53:06;;;;;;;5.68;2.78;;;;;;;3.79;nan;95494.19;2065576;28;20501;-63
2024/02/07 02:54:07;;;;;;;6.20;3.25;;;;;;;3.79;nan;95514.75;2057696;28;20053;-63
2024/02/07 02:55:11;;;;;;;5.32;2.88;;;;;;;3.83;nan;95509.47;2057989;28;20042;-63
2024/02/07 02:56:12;;;;;;;4.88;2.28;;;;;;;3.83;nan;95496.63;2066730;28;20054;-64
2024/02/07 02:57:15;;;;;;;4.80;2.20;;;;;;;3.82;nan;95494.94;2066724;28;20489;-64
2024/02/07 02:58:18;;;;;;;11.65;2.90;;;;;;;3.82;nan;95514.66;2067128;28;20173;-63
2024/02/07 02:59:20;;;;;;;6.55;3.28;;;;;;;3.84;nan;95476.91;2066395;28;20061;-64
2024/02/07 03:00:21;;;;;;;6.63;2.95;;;;;;;3.89;nan;95511.88;2066671;28;20053;-63
2024/02/07 03:01:23;;;;;;;6.90;3.38;;;;;;;3.88;nan;95499.91;2066483;28;20042;-62
2024/02/07 03:02:24;;;;;;;12.70;2.45;;;;;;;3.85;nan;95499.13;2066303;28;20471;-63
2024/02/07 03:03:26;;;;;;;6.25;2.80;;;;;;;3.89;nan;95490.47;2065905;28;20048;-64
2024/02/07 03:04:32;;;;;;;8.52;2.90;;;;;;;3.90;nan;95466.47;2066667;28;20049;-65
2024/02/07 03:05:45;;;;;;;7.88;2.90;;;;;;;3.93;nan;95492.91;2066101;28;20050;-63
2024/02/07 03:06:58;;;;;;;6.57;2.63;;;;;;;3.91;nan;95491.28;2066381;28;20051;-64
2024/02/07 03:08:15;;;;;;;5.15;2.50;;;;;;;3.99;nan;95486.75;2066696;28;20068;-63
2024/02/07 03:09:21;;;;;;;4.88;2.42;;;;;;;3.98;nan;95490.19;2066315;28;20053;-64
2024/02/07 03:10:23;;;;;;;6.75;3.53;;;;;;;3.98;nan;95482.50;2066701;28;20038;-64
2024/02/07 03:11:24;;;;;;;5.68;2.80;;;;;;;4.00;nan;95478.16;2066577;28;20038;-65
2024/02/07 03:12:25;;;;;;;10.98;4.30;;;;;;;4.00;nan;95496.13;2065967;28;20079;-63
2024/02/07 03:13:26;;;;;;;8.13;3.55;;;;;;;3.98;nan;95495.34;2065912;28;20038;-63
2024/02/07 03:14:27;;;;;;;6.32;3.33;;;;;;;3.91;nan;95489.53;2066393;28;20069;-63
2024/02/07 03:15:29;;;;;;;3.95;2.38;;;;;;;3.94;nan;95484.31;2065933;28;20042;-63
2024/02/07 03:16:30;;;;;;;6.75;2.70;;;;;;;3.96;nan;95494.56;2066280;28;20034;-64
2024/02/07 03:17:31;;;;;;;5.65;2.60;;;;;;;3.95;nan;95490.28;2066517;28;20487;-63
2024/02/07 03:18:34;;;;;;;5.53;2.70;;;;;;;3.95;nan;95488.56;2066663;28;20023;-63
2024/02/07 03:19:35;;;;;;;7.22;2.92;;;;;;;3.97;nan;95478.25;2065823;28;20475;-64
2024/02/07 03:20:36;;;;;;;8.18;3.53;;;;;;;3.98;nan;95493.63;2066641;28;20474;-63
2024/02/07 03:21:37;;;;;;;6.18;2.80;;;;;;;3.96;nan;95489.41;2066563;28;20042;-64
2024/02/07 03:22:38;;;;;;;6.22;2.88;;;;;;;3.94;nan;95496.31;2066114;28;20125;-64
2024/02/07 03:23:39;;;;;;;6.57;2.90;;;;;;;3.96;nan;95495.41;2065909;28;20057;-64
2024/02/07 03:24:41;;;;;;;5.57;3.05;;;;;;;3.92;nan;95492.94;2066499;28;20490;-63
2024/02/07 03:25:42;;;;;;;5.32;2.90;;;;;;;3.89;nan;95501.59;2066820;28;20042;-63
2024/02/07 03:26:44;;;;;;;7.95;3.25;;;;;;;3.83;nan;95494.06;2066417;28;20380;-63
2024/02/07 03:27:46;;;;;;;8.63;3.00;;;;;;;3.81;nan;95492.44;2066402;28;20475;-65
2024/02/07 03:28:47;;;;;;;6.50;3.17;;;;;;;3.81;nan;95492.44;2065994;28;20062;-63
2024/02/07 03:29:48;;;;;;;8.43;3.03;;;;;;;3.86;nan;95480.28;2066543;28;20054;-64
2024/02/07 03:30:49;;;;;;;6.85;2.88;;;;;;;3.87;nan;95503.34;2066371;28;20483;-63
2024/02/07 03:31:51;;;;;;;5.95;3.20;;;;;;;3.85;nan;95491.44;2066494;28;20054;-64
2024/02/07 03:32:52;;;;;;;6.70;2.90;;;;;;;3.84;nan;95493.16;2066366;28;20411;-63
2024/02/07 03:33:54;;;;;;;4.60;2.38;;;;;;;3.82;nan;95489.78;2066682;28;20042;-63
2024/02/07 03:34:55;;;;;;;7.25;2.80;;;;;;;3.88;nan;95496.50;2066404;28;20054;-63
2024/02/07 03:35:56;;;;;;;4.82;2.63;;;;;;;3.92;nan;95480.94;2066407;28;20502;-64
2024/02/07 03:36:57;;;;;;;4.20;2.58;;;;;;;3.96;nan;95495.41;2057970;28;20038;-63
2024/02/07 03:37:58;;;;;;;8.02;3.65;;;;;;;3.94;nan;95463.75;2057521;28;20062;-64
2024/02/07 03:39:00;;;;;;;6.47;3.03;;;;;;;3.93;nan;95474.09;2066140;28;20054;-63
2024/02/07 03:40:04;;;;;;;10.35;3.03;;;;;;;3.90;nan;95481.88;2057299;28;20050;-64
2024/02/07 03:41:05;;;;;;;6.53;3.55;;;;;;;3.92;nan;95488.66;2058071;28;20053;-63
2024/02/07 03:42:08;;;;;;;10.20;3.20;;;;;;;3.90;nan;95481.88;2066183;28;20050;-63
2024/02/07 03:43:09;;;;;;;12.50;3.78;;;;;;;3.86;nan;95460.59;2065904;28;20046;-63
2024/02/07 03:44:12;;;;;;;5.47;3.08;;;;;;;3.87;nan;95485.38;2065650;28;20053;-63
2024/02/07 03:45:16;;;;;;;6.38;3.13;;;;;;;3.90;nan;95477.59;2066000;28;20406;-63
2024/02/07 03:46:17;;;;;;;7.28;3.55;;;;;;;3.96;nan;95479.16;2066384;28;20042;-63
2024/02/07 03:47:19;;;;;;;5.22;2.33;;;;;;;3.99;nan;95455.94;2066425;28;20409;-63
2024/02/07 03:48:23;;;;;;;6.50;2.72;;;;;;;4.07;nan;95469.38;2065859;28;20034;-63
2024/02/07 03:49:25;;;;;;;6.97;2.53;;;;;;;4.10;nan;95466.72;2066290;28;20045;-63
2024/02/07 03:50:27;;;;;;;6.32;3.33;;;;;;;4.13;nan;95468.34;2066251;28;20042;-62
2024/02/07 03:51:28;;;;;;;5.88;2.45;;;;;;;4.18;nan;95446.75;2066463;28;20049;-63
2024/02/07 03:52:29;;;;;;;5.95;2.78;;;;;;;4.24;nan;95475.72;2066312;28;20042;-63
2024/02/07 03:53:31;;;;;;;4.15;2.40;;;;;;;4.24;nan;95468.03;2066225;28;20042;-64
2024/02/07 03:54:32;;;;;;;5.28;2.53;;;;;;;4.29;nan;95458.44;2065692;28;20045;-63
2024/02/07 03:55:35;;;;;;;5.93;2.42;;;;;;;4.32;nan;95461.75;2066321;28;20038;-63
2024/02/07 03:56:37;;;;;;;6.80;2.80;;;;;;;4.33;nan;95460.00;2066220;28;20042;-63
2024/02/07 03:57:42;;;;;;;7.25;3.15;;;;;;;4.33;nan;95462.59;2057625;28;20459;-63
2024/02/07 03:58:43;;;;;;;8.40;2.83;;;;;;;4.38;nan;95450.44;2058258;28;20051;-64
2024/02/07 03:59:45;;;;;;;7.00;2.45;;;;;;;4.43;nan;95461.41;2057591;28;20529;-63
2024/02/07 04:00:47;;;;;;;4.72;2.00;;;;;;;4.44;nan;95465.69;2057696;28;20038;-64
2024/02/07 04:01:48;;;;;;;8.43;2.50;;;;;;;4.45;nan;95454.50;2065446;28;20061;-64
2024/02/07 04:02:49;;;;;;;4.30;2.45;;;;;;;4.49;nan;95456.09;2065498;28;20089;-63
2024/02/07 04:03:52;;;;;;;4.00;2.50;;;;;;;4.48;nan;95451.81;2065477;28;20062;-63
2024/02/07 04:04:54;;;;;;;3.88;1.88;;;;;;;4.47;nan;95433.91;2066207;28;20050;-63
2024/02/07 04:05:56;;;;;;;5.63;2.45;;;;;;;4.48;nan;95462.09;2065464;28;20113;-63
2024/02/07 04:06:58;;;;;;;4.55;2.55;;;;;;;4.45;nan;95454.50;2065818;28;20054;-62
2024/02/07 04:07:59;;;;;;;8.10;3.22;;;;;;;4.45;nan;95456.22;2065866;28;20054;-63
2024/02/07 04:09:05;;;;;;;6.13;2.42;;;;;;;4.45;nan;95441.63;2066096;28;20038;-63
2024/02/07 04:10:09;;;;;;;8.60;2.92;;;;;;;4.45;nan;95453.66;2057052;28;20406;-62
2024/02/07 05:16:12;;;;;;;6.47;3.10;;;;;;;4.28;nan;95369.38;2065239;28;20058;-66
2024/02/07 05:17:14;;;;;;;9.13;4.57;;;;;;;4.31;nan;95374.41;2065672;28;20045;-67
2024/02/07 05:18:15;;;;;;;9.85;4.00;;;;;;;4.34;nan;95380.28;2065654;28;20478;-67
2024/02/07 05:19:17;;;;;;;11.90;4.38;;;;;;;4.37;nan;95379.34;2065698;28;20034;-66
2024/02/07 05:20:18;;;;;;;7.07;3.72;;;;;;;4.41;nan;95386.06;2065192;28;20073;-66
2024/02/07 05:21:19;;;;;;;8.90;4.22;;;;;;;4.44;nan;95375.69;2065282;28;20043;-65
2024/02/07 05:22:20;;;;;;;7.57;3.70;;;;;;;4.39;nan;95360.41;2064735;28;20525;-63
2024/02/07 05:23:21;;;;;;;6.65;3.17;;;;;;;4.37;nan;95351.06;2065638;28;20042;-65
2024/02/07 05:24:23;;;;;;;8.85;4.20;;;;;;;4.37;nan;95380.19;2065569;28;20398;-64
2024/02/07 05:25:24;;;;;;;11.00;4.18;;;;;;;4.37;nan;95356.22;2064702;28;20057;-66
2024/02/07 05:26:25;;;;;;;7.80;4.18;;;;;;;4.33;nan;95372.63;2065624;28;20038;-66
2024/02/07 05:27:30;;;;;;;8.07;4.18;;;;;;;4.30;nan;95336.72;2057176;28;20050;-67
2024/02/07 05:28:31;;;;;;;8.27;4.65;;;;;;;4.31;nan;95323.00;2057424;28;20049;-66
2024/02/07 05:29:33;;;;;;;8.82;3.95;;;;;;;4.35;nan;95370.84;2065611;28;20503;-66
2024/02/07 05:30:34;;;;;;;7.03;4.15;;;;;;;4.32;nan;95388.94;2064926;28;20073;-65
2024/02/07 05:31:35;;;;;;;9.35;4.32;;;;;;;4.32;nan;95366.63;2065645;28;20053;-65
2024/02/07 05:32:36;;;;;;;8.23;4.32;;;;;;;4.32;nan;95382.06;2065622;28;20034;-65
2024/02/07 05:33:39;;;;;;;9.70;4.00;;;;;;;4.30;nan;95372.72;2065592;28;20057;-65
2024/02/07 05:34:40;;;;;;;9.27;4.82;;;;;;;4.36;nan;95359.69;2065377;28;20066;-66
2024/02/07 05:35:41;;;;;;;9.13;3.90;;;;;;;4.37;nan;95371.63;2065541;28;20421;-65
2024/02/07 05:36:42;;;;;;;6.40;3.45;;;;;;;4.29;nan;95379.59;2065555;28;20046;-65
2024/02/07 05:37:43;;;;;;;8.15;4.07;;;;;;;4.23;nan;95360.97;2065029;28;20414;-66
2024/02/07 05:38:44;;;;;;;7.03;3.75;;;;;;;4.24;nan;95373.75;2065100;28;20049;-66
2024/02/07 05:39:45;;;;;;;8.05;3.60;;;;;;;4.19;nan;95365.34;2065159;28;20065;-64
2024/02/07 05:40:46;;;;;;;9.23;4.22;;;;;;;4.23;nan;95322.44;2065063;28;20050;-68
2024/02/07 05:41:47;;;;;;;5.50;3.15;;;;;;;4.27;nan;95375.41;2065086;28;20061;-67
2024/02/07 05:42:49;;;;;;;9.57;4.68;;;;;;;4.18;nan;95361.13;2065215;28;20398;-65
2024/02/07 05:43:52;;;;;;;7.60;4.05;;;;;;;4.12;nan;95362.16;2065188;28;20053;-66
2024/02/07 05:44:53;;;;;;;8.98;4.72;;;;;;;4.17;nan;95365.41;2065478;28;20047;-66
2024/02/07 05:45:57;;;;;;;8.55;3.75;;;;;;;4.18;nan;95395.38;2064987;28;20061;-65
2024/02/07 05:46:58;;;;;;;10.25;4.25;;;;;;;4.17;nan;95362.84;2065471;28;20053;-66
2024/02/07 05:48:00;;;;;;;7.40;4.20;;;;;;;4.23;nan;95353.25;2065513;28;20486;-65
2024/02/07 05:49:01;;;;;;;8.95;4.75;;;;;;;4.21;nan;95384.16;2065574;28;20042;-65
2024/02/07 05:50:02;;;;;;;8.05;4.22;;;;;;;4.16;nan;95386.00;2065516;28;20038;-65
2024/02/07 05:51:04;;;;;;;8.55;4.40;;;;;;;4.13;nan;95371.53;2065467;28;20065;-65
2024/02/07 05:52:05;;;;;;;10.43;5.25;;;;;;;4.24;nan;95371.19;2065222;28;20054;-64
2024/02/07 05:53:06;;;;;;;10.77;3.55;;;;;;;4.19;nan;95376.47;2065236;28;20050;-64
2024/02/07 05:54:09;;;;;;;11.35;4.10;;;;;;;4.20;nan;95356.78;2065497;28;20038;-65
2024/02/07 05:55:10;;;;;;;7.68;3.35;;;;;;;4.19;nan;95381.59;2065526;28;20046;-65
2024/02/07 05:56:12;;;;;;;11.10;5.20;;;;;;;4.16;nan;95380.88;2064965;28;20050;-64
2024/02/07 05:57:13;;;;;;;11.35;4.32;;;;;;;4.11;nan;95357.88;2064888;28;20061;-66
2024/02/07 05:58:14;;;;;;;10.02;5.50;;;;;;;4.09;nan;95345.97;2064875;28;20050;-66
2024/02/07 05:59:17;;;;;;;10.15;4.22;;;;;;;4.10;nan;95333.09;2064976;28;20046;-68
2024/02/07 06:00:18;;;;;;;9.43;4.40;;;;;;;4.22;nan;95375.53;2065149;28;20042;-66
2024/02/07 06:01:21;;;;;;;7.43;3.63;;;;;;;4.22;nan;95349.84;2065503;28;20038;-66
2024/02/07 06:02:22;;;;;;;9.30;4.20;;;;;;;4.22;nan;95380.66;2065449;28;20039;-65
2024/02/07 06:03:24;;;;;;;8.90;4.50;;;;;;;4.18;nan;95358.53;2064479;28;20050;-65
2024/02/07 06:04:25;;;;;;;7.57;4.00;;;;;;;4.19;nan;95353.34;2065476;28;20426;-67
2024/02/07 06:05:27;;;;;;;8.63;3.78;;;;;;;4.17;nan;95373.13;2065414;28;20030;-66
2024/02/07 06:06:29;;;;;;;8.18;3.53;;;;;;;4.12;nan;95369.03;2065411;28;20045;-66
2024/02/07 06:07:31;;;;;;;8.63;3.90;;;;;;;4.12;nan;95354.44;2056853;28;20046;-66
2024/02/07 06:08:33;;;;;;;8.55;4.70;;;;;;;4.18;nan;95353.41;2056846;28;20050;-66